Castle Airport
KMER : now visible

Airfield :











YOU CAN JOIN US ON...

 
LOGIN :

Register | Disclaimer

   EN    FR    IT 

 









Legend :    VFR   Marginal VFR   IFR   Intensive IFR   Very Intensive IFR
Visi :
Ceiling :
>= 8 km
>= 3000ft
5 to 8 km
1000 to 3000 ft
1500m to 5 km
500 to 1000 ft
800 to 1500m
200 to 500 ft
< 800m
< 200 ft
Symbols :   Thunderstorms  Fog  Heavy snow  Heavy precipitations  Wind > 20 kt







- Airport Elevation : 191 ft


KMER - Castle

CURRENT METAR :
  • 162045Z 35007KT 2SM BR SCT007 OVC030 17/17 A2997

EXPIRED METARs :
  • 161945Z 35007KT 2SM BR SCT007 OVC030 17/17 A2997

TAF KMER
Valid from the 16 at 18:00 until the 17 at 18:00 UTC


161720Z 1618/1718 29004KT P6SM FEW070 SCT120 BKN200
FM162000 32010KT P6SM VCSH SCT070 BKN120 OVC200
FM170000 34008KT P6SM FEW070 SCT120 BKN200
FM170600 34005KT P6SM SCT200
No reported NOTAMs for that airfield.



MET'MAP, your aeronautical weather chart ! - Copyright ORBIFLY December 2007 - Disclaimer

ORBIFLY MET'MAP TEAM :

Programming & Development : Alexandra Zaïnal
Concept & Development : Baudouin d'Aumeries
Co-Development & Prog : Marc-Olivier Méhu
Technical & hardware support : Manuel Goepfert

Contact : metmap@orbifly.com




SOURCES & CREDITS :

   NOAA       Earth
Advisory